createdAt,value
2019-01-17T00:02:08.394Z,10.14
2019-01-17T00:04:34.714Z,10.10
2019-01-17T00:07:01.034Z,10.09
2019-01-17T00:09:27.335Z,10.05
2019-01-17T00:11:53.663Z,10.02
2019-01-17T00:14:19.975Z,10.02
2019-01-17T00:16:46.291Z,10.01
2019-01-17T00:19:12.587Z,9.98
2019-01-17T00:21:38.922Z,9.96
2019-01-17T00:24:05.238Z,9.93
2019-01-17T00:26:31.536Z,9.89
2019-01-17T00:28:57.831Z,9.87
2019-01-17T00:31:24.127Z,9.85
2019-01-17T00:33:50.435Z,9.84
2019-01-17T00:36:16.739Z,9.80
2019-01-17T00:38:43.066Z,9.80
2019-01-17T00:41:09.382Z,9.77
2019-01-17T00:43:35.687Z,9.72
2019-01-17T00:46:02.008Z,9.72
2019-01-17T00:48:28.329Z,9.69
2019-01-17T00:50:54.608Z,9.67
2019-01-17T00:53:20.914Z,9.65
2019-01-17T00:55:47.204Z,9.64
2019-01-17T00:58:13.503Z,9.55
2019-01-17T01:00:39.806Z,9.62
2019-01-17T01:03:06.114Z,9.61
2019-01-17T01:05:32.419Z,9.61
2019-01-17T01:07:58.734Z,9.59
2019-01-17T01:10:25.088Z,9.55
2019-01-17T01:12:51.350Z,9.54
2019-01-17T01:15:17.679Z,9.54
2019-01-17T01:17:43.990Z,9.56
2019-01-17T01:20:10.307Z,9.51
2019-01-17T01:22:36.615Z,9.52
2019-01-17T01:25:02.931Z,9.49
2019-01-17T01:27:29.284Z,9.48
2019-01-17T01:29:55.581Z,9.47
2019-01-17T01:32:21.895Z,9.48
2019-01-17T01:34:48.205Z,9.44
2019-01-17T01:37:14.513Z,9.43
2019-01-17T01:39:40.811Z,9.42
2019-01-17T01:42:07.122Z,9.41
2019-01-17T01:44:33.430Z,9.38
2019-01-17T01:46:59.735Z,9.32
2019-01-17T01:49:26.051Z,9.34
2019-01-17T01:51:52.348Z,9.35
2019-01-17T01:54:22.142Z,9.33
2019-01-17T01:56:44.946Z,9.31
2019-01-17T01:59:11.257Z,9.28
2019-01-17T02:01:37.561Z,9.26
2019-01-17T02:04:03.876Z,9.24
2019-01-17T02:06:30.194Z,9.24
2019-01-17T02:08:56.577Z,9.24
2019-01-17T02:11:22.893Z,9.22
2019-01-17T02:13:49.196Z,9.22
2019-01-17T02:16:15.496Z,9.20
2019-01-17T02:18:41.801Z,9.13
2019-01-17T02:21:08.114Z,9.14
2019-01-17T02:23:34.438Z,9.13
2019-01-17T02:26:00.748Z,9.10
2019-01-17T02:28:27.057Z,9.08
2019-01-17T02:30:53.391Z,9.05
2019-01-17T02:33:19.694Z,9.03
2019-01-17T02:35:45.988Z,9.03
2019-01-17T02:38:12.323Z,9.03
2019-01-17T02:40:38.627Z,9.01
2019-01-17T02:43:04.927Z,8.99
2019-01-17T02:45:31.235Z,8.95
2019-01-17T02:47:57.547Z,8.91
2019-01-17T02:50:23.841Z,8.88
2019-01-17T02:52:50.157Z,8.85
2019-01-17T02:55:16.487Z,8.81
2019-01-17T02:57:42.796Z,8.77
2019-01-17T03:00:09.106Z,8.75
2019-01-17T03:02:35.413Z,8.74
2019-01-17T03:05:01.707Z,8.72
2019-01-17T03:07:28.006Z,8.72
2019-01-17T03:09:54.312Z,8.70
2019-01-17T03:12:20.629Z,8.67
2019-01-17T03:14:46.945Z,8.64
2019-01-17T03:17:13.264Z,8.62
2019-01-17T03:19:39.561Z,8.60
2019-01-17T03:22:05.883Z,8.58
2019-01-17T03:24:32.193Z,8.56
2019-01-17T03:26:58.490Z,8.52
2019-01-17T03:29:24.792Z,8.53
2019-01-17T03:31:51.099Z,8.51
2019-01-17T03:34:17.389Z,8.51
2019-01-17T03:36:43.690Z,8.49
2019-01-17T03:39:09.995Z,8.46
2019-01-17T03:41:36.328Z,8.47
2019-01-17T03:44:02.634Z,8.44
2019-01-17T03:46:28.943Z,8.43
2019-01-17T03:48:55.279Z,8.41
2019-01-17T03:51:21.579Z,8.37
2019-01-17T03:53:47.869Z,8.35
2019-01-17T03:56:21.333Z,8.32
2019-01-17T03:58:40.484Z,8.33
2019-01-17T04:01:06.797Z,8.31
2019-01-17T04:03:33.096Z,8.27
2019-01-17T04:05:59.398Z,8.29
2019-01-17T04:08:25.694Z,8.27
2019-01-17T04:10:52.009Z,8.26
2019-01-17T04:13:18.313Z,8.23
2019-01-17T04:15:44.618Z,8.23
2019-01-17T04:18:10.958Z,8.23
2019-01-17T04:20:37.258Z,8.21
2019-01-17T04:23:03.580Z,8.18
2019-01-17T04:25:29.899Z,8.17
2019-01-17T04:27:56.194Z,8.13
2019-01-17T04:30:22.499Z,8.11
2019-01-17T04:32:48.791Z,8.10
2019-01-17T04:35:15.087Z,8.07
2019-01-17T04:37:41.413Z,8.06
2019-01-17T04:40:07.723Z,8.03
2019-01-17T04:42:34.027Z,8.01
2019-01-17T04:45:00.385Z,7.97
2019-01-17T04:47:26.648Z,7.93
2019-01-17T04:49:52.962Z,7.94
2019-01-17T04:52:19.260Z,7.92
2019-01-17T04:54:45.569Z,7.92
2019-01-17T04:57:11.936Z,7.89
2019-01-17T04:59:38.238Z,7.88
2019-01-17T05:02:04.531Z,7.87
2019-01-17T05:04:30.847Z,7.85
2019-01-17T05:06:57.165Z,7.81
2019-01-17T05:09:23.456Z,7.81
2019-01-17T05:11:52.600Z,7.80
2019-01-17T05:14:18.917Z,7.79
2019-01-17T05:16:45.218Z,7.75
2019-01-17T05:19:11.570Z,7.74
2019-01-17T05:21:37.871Z,7.72
2019-01-17T05:24:04.188Z,8.02
2019-01-17T05:26:30.503Z,9.40
2019-01-17T05:28:56.821Z,10.24
2019-01-17T05:31:23.118Z,10.07
2019-01-17T05:33:49.423Z,9.68
2019-01-17T05:36:15.770Z,9.40
2019-01-17T05:38:42.069Z,9.25
2019-01-17T05:41:08.366Z,9.16
2019-01-17T05:43:34.681Z,9.09
2019-01-17T05:46:00.977Z,9.06
2019-01-17T05:48:27.299Z,9.02
2019-01-17T05:50:53.610Z,8.97
2019-01-17T05:53:19.917Z,8.92
2019-01-17T05:55:46.223Z,8.88
2019-01-17T05:58:12.521Z,8.83
2019-01-17T06:00:38.841Z,8.80
2019-01-17T06:03:05.188Z,8.80
2019-01-17T06:05:31.453Z,8.78
2019-01-17T06:07:57.763Z,8.71
2019-01-17T06:10:24.074Z,8.57
2019-01-17T06:12:50.408Z,8.52
2019-01-17T06:15:16.721Z,8.56
2019-01-17T06:17:43.038Z,8.78
2019-01-17T06:20:09.336Z,9.07
2019-01-17T06:22:35.660Z,9.32
2019-01-17T06:25:01.970Z,9.51
2019-01-17T06:27:28.307Z,9.66
2019-01-17T06:29:54.617Z,9.69
2019-01-17T06:32:20.940Z,9.73
2019-01-17T06:34:47.321Z,9.82
2019-01-17T06:37:13.605Z,9.94
2019-01-17T06:39:39.903Z,10.21
2019-01-17T06:42:06.220Z,10.45
2019-01-17T06:44:32.526Z,10.68
2019-01-17T06:46:58.829Z,10.93
2019-01-17T06:49:25.148Z,11.15
2019-01-17T06:51:51.476Z,11.32
2019-01-17T06:54:17.779Z,11.61
2019-01-17T06:56:44.123Z,11.77
2019-01-17T06:59:10.421Z,11.98
2019-01-17T07:01:36.716Z,12.21
2019-01-17T07:04:03.036Z,12.42
2019-01-17T07:06:29.351Z,12.70
2019-01-17T07:08:55.668Z,12.91
2019-01-17T07:11:21.967Z,13.14
2019-01-17T07:13:48.305Z,13.20
2019-01-17T07:16:14.609Z,13.42
2019-01-17T07:18:40.923Z,13.36
2019-01-17T07:21:07.246Z,13.50
2019-01-17T07:23:33.548Z,13.84
2019-01-17T07:25:59.849Z,14.19
2019-01-17T07:28:26.150Z,14.53
2019-01-17T07:30:52.470Z,14.83
2019-01-17T07:33:18.769Z,15.06
2019-01-17T07:35:45.087Z,15.30
2019-01-17T07:38:11.407Z,15.48
2019-01-17T07:40:37.704Z,15.69
2019-01-17T07:43:04.002Z,15.92
2019-01-17T07:45:30.347Z,16.16
2019-01-17T07:47:56.642Z,16.40
2019-01-17T07:50:22.947Z,16.60
2019-01-17T07:52:49.315Z,16.85
2019-01-17T07:55:15.580Z,17.07
2019-01-17T07:57:41.902Z,17.27
2019-01-17T08:00:08.220Z,17.52
2019-01-17T08:02:34.526Z,17.76
2019-01-17T08:05:00.821Z,17.51
2019-01-17T08:07:27.131Z,17.34
2019-01-17T08:09:53.435Z,17.61
2019-01-17T08:12:19.769Z,17.82
2019-01-17T08:14:46.073Z,17.90
2019-01-17T08:17:12.371Z,17.68
2019-01-17T08:19:38.672Z,17.45
2019-01-17T08:22:04.966Z,17.46
2019-01-17T08:24:31.293Z,17.81
2019-01-17T08:26:57.599Z,18.12
2019-01-17T08:29:23.955Z,18.40
2019-01-17T08:31:50.275Z,18.69
2019-01-17T08:34:16.579Z,18.95
2019-01-17T08:36:42.879Z,19.26
2019-01-17T08:39:09.191Z,19.54
2019-01-17T08:41:35.485Z,19.77
2019-01-17T08:44:01.784Z,20.00
2019-01-17T08:46:28.097Z,20.21
2019-01-17T08:48:54.412Z,20.43
2019-01-17T08:51:20.709Z,20.65
2019-01-17T08:53:47.007Z,20.95
2019-01-17T08:56:13.315Z,21.31
2019-01-17T08:58:39.654Z,21.57
2019-01-17T09:01:05.936Z,21.87
2019-01-17T09:03:32.246Z,22.09
2019-01-17T09:05:58.555Z,22.31
2019-01-17T09:08:24.857Z,22.49
2019-01-17T09:10:51.199Z,22.71
2019-01-17T09:13:17.537Z,22.74
2019-01-17T09:15:43.820Z,22.77
2019-01-17T09:18:10.155Z,22.77
2019-01-17T09:20:36.466Z,22.80
2019-01-17T09:23:02.769Z,22.86
2019-01-17T09:25:29.071Z,22.92
2019-01-17T09:27:55.385Z,23.03
2019-01-17T09:30:21.730Z,23.11
2019-01-17T09:32:48.038Z,23.20
2019-01-17T09:35:14.340Z,23.31
2019-01-17T09:37:40.642Z,23.40
2019-01-17T09:40:06.958Z,23.49
2019-01-17T09:42:33.251Z,23.61
2019-01-17T09:44:59.563Z,23.73
2019-01-17T09:47:25.869Z,23.85
2019-01-17T09:49:52.220Z,23.99
2019-01-17T09:52:18.523Z,24.09
2019-01-17T09:54:44.838Z,24.21
2019-01-17T09:57:11.159Z,24.31
2019-01-17T09:59:37.456Z,24.45
2019-01-17T10:02:03.766Z,24.58
2019-01-17T10:04:30.064Z,24.68
2019-01-17T10:06:56.381Z,24.78
2019-01-17T10:09:22.689Z,24.89
2019-01-17T10:11:49.050Z,25.01
2019-01-17T10:14:15.362Z,25.13
2019-01-17T10:16:41.656Z,25.23
2019-01-17T10:19:07.970Z,25.38
2019-01-17T10:21:34.283Z,25.48
2019-01-17T10:24:00.585Z,25.60
2019-01-17T10:26:26.897Z,25.71
2019-01-17T10:28:53.207Z,25.82
2019-01-17T10:31:19.508Z,25.91
2019-01-17T10:33:45.827Z,26.02
2019-01-17T10:36:12.144Z,26.10
2019-01-17T10:38:38.472Z,26.19
2019-01-17T10:41:04.772Z,26.27
2019-01-17T10:43:31.084Z,26.34
2019-01-17T10:45:57.407Z,26.43
2019-01-17T10:48:23.710Z,26.50
2019-01-17T10:50:50.042Z,26.57
2019-01-17T10:53:16.346Z,26.67
2019-01-17T10:55:42.668Z,26.73
2019-01-17T10:58:08.999Z,26.82
2019-01-17T11:00:35.324Z,26.88
2019-01-17T11:03:01.626Z,26.93
2019-01-17T11:05:27.935Z,26.99
2019-01-17T11:07:54.253Z,27.06
2019-01-17T11:10:20.569Z,27.09
2019-01-17T11:12:46.866Z,27.14
2019-01-17T11:15:13.199Z,27.18
2019-01-17T11:17:39.502Z,27.24
2019-01-17T11:20:05.802Z,27.27
2019-01-17T11:22:32.100Z,27.35
2019-01-17T11:24:58.421Z,27.39
2019-01-17T11:27:24.750Z,27.44
2019-01-17T11:29:51.067Z,27.50
2019-01-17T11:32:17.375Z,27.53
2019-01-17T11:34:43.674Z,27.58
2019-01-17T11:37:09.984Z,27.59
2019-01-17T11:39:36.325Z,27.62
2019-01-17T11:42:02.625Z,27.63
2019-01-17T11:44:28.933Z,27.67
2019-01-17T11:46:55.246Z,27.66
2019-01-17T11:49:21.574Z,27.71
2019-01-17T11:51:47.887Z,27.73
2019-01-17T11:54:14.198Z,27.74
2019-01-17T11:56:41.020Z,27.73
2019-01-17T11:59:06.804Z,27.72
2019-01-17T12:01:33.138Z,27.73
2019-01-17T12:03:59.432Z,27.72
2019-01-17T12:06:25.733Z,27.70
2019-01-17T12:08:52.047Z,27.72
2019-01-17T12:11:18.347Z,27.73
2019-01-17T12:13:44.668Z,27.72
2019-01-17T12:16:10.983Z,27.72
2019-01-17T12:18:37.279Z,27.71
2019-01-17T12:21:03.602Z,27.69
2019-01-17T12:23:29.898Z,27.65
2019-01-17T12:25:56.213Z,27.60
2019-01-17T12:28:22.545Z,27.57
2019-01-17T12:30:48.857Z,27.51
2019-01-17T12:33:15.165Z,27.50
2019-01-17T12:35:41.495Z,27.45
2019-01-17T12:38:07.792Z,27.39
2019-01-17T12:40:34.092Z,27.34
2019-01-17T12:43:00.427Z,27.28
2019-01-17T12:45:26.724Z,27.26
2019-01-17T12:47:53.037Z,27.22
2019-01-17T12:50:19.336Z,27.20
2019-01-17T12:52:45.639Z,27.20
2019-01-17T12:55:11.958Z,27.16
2019-01-17T12:57:38.251Z,27.13
2019-01-17T13:00:07.821Z,27.07
2019-01-17T13:02:30.888Z,27.04
2019-01-17T13:04:57.225Z,27.00
2019-01-17T13:07:23.549Z,26.96
2019-01-17T13:09:49.843Z,26.94
2019-01-17T13:12:16.193Z,26.88
2019-01-17T13:14:42.501Z,26.81
2019-01-17T13:17:09.001Z,26.73
2019-01-17T13:19:35.342Z,26.65
2019-01-17T13:22:01.685Z,26.58
2019-01-17T13:24:27.964Z,26.52
2019-01-17T13:27:00.540Z,26.40
2019-01-17T13:29:20.569Z,26.35
2019-01-17T13:31:46.862Z,26.31
2019-01-17T13:34:13.158Z,26.25
2019-01-17T13:36:40.440Z,26.18
2019-01-17T13:39:05.791Z,26.13
2019-01-17T13:41:32.180Z,26.03
2019-01-17T13:43:58.627Z,25.93
2019-01-17T13:46:24.950Z,25.81
2019-01-17T13:48:51.261Z,25.74
2019-01-17T13:51:17.564Z,25.61
2019-01-17T13:53:43.870Z,25.51
2019-01-17T13:56:10.171Z,25.38
2019-01-17T13:58:36.531Z,25.31
2019-01-17T14:01:03.060Z,25.19
2019-01-17T14:03:29.383Z,25.09
2019-01-17T14:05:55.691Z,24.96
2019-01-17T14:08:21.995Z,24.82
2019-01-17T14:10:48.340Z,24.66
2019-01-17T14:13:14.646Z,24.57
2019-01-17T14:15:40.943Z,24.43
2019-01-17T14:18:07.252Z,24.26
2019-01-17T14:20:33.616Z,24.13
2019-01-17T14:22:59.910Z,23.96
2019-01-17T14:25:26.232Z,23.77
2019-01-17T14:27:52.543Z,23.64
2019-01-17T14:30:18.869Z,23.55
2019-01-17T14:32:45.172Z,23.45
2019-01-17T14:35:11.476Z,23.31
2019-01-17T14:37:37.788Z,23.20
2019-01-17T14:40:04.099Z,23.10
2019-01-17T14:42:30.427Z,22.99
2019-01-17T14:44:56.736Z,22.84
2019-01-17T14:47:23.037Z,22.71
2019-01-17T14:49:49.342Z,22.64
2019-01-17T14:52:15.657Z,22.53
2019-01-17T14:54:41.949Z,22.40
2019-01-17T14:57:08.248Z,22.38
2019-01-17T14:59:34.547Z,22.27
2019-01-17T15:02:00.837Z,22.12
2019-01-17T15:04:27.239Z,21.99
2019-01-17T15:06:53.552Z,21.85
2019-01-17T15:09:19.866Z,21.72
2019-01-17T15:11:46.169Z,21.61
2019-01-17T15:14:12.474Z,21.50
2019-01-17T15:16:38.795Z,21.39
2019-01-17T15:19:05.243Z,21.22
2019-01-17T15:21:31.545Z,21.06
2019-01-17T15:23:57.838Z,20.97
2019-01-17T15:26:24.155Z,20.89
2019-01-17T15:28:50.452Z,20.81
2019-01-17T15:31:16.793Z,20.70
2019-01-17T15:33:43.103Z,20.62
2019-01-17T15:36:09.488Z,20.50
2019-01-17T15:38:35.797Z,20.39
2019-01-17T15:41:02.131Z,20.29
2019-01-17T15:43:28.635Z,20.21
2019-01-17T15:45:54.940Z,20.14
2019-01-17T15:48:21.302Z,20.02
2019-01-17T15:50:47.661Z,19.95
2019-01-17T15:53:13.937Z,19.83
2019-01-17T15:55:40.245Z,19.72
2019-01-17T15:58:06.555Z,19.65
2019-01-17T16:00:32.914Z,19.58
2019-01-17T16:02:59.174Z,19.54
2019-01-17T16:05:25.475Z,19.48
2019-01-17T16:07:51.798Z,19.34
2019-01-17T16:10:18.127Z,19.22
2019-01-17T16:12:44.634Z,19.13
2019-01-17T16:15:20.149Z,19.08
2019-01-17T16:17:46.472Z,19.00
2019-01-17T16:20:12.776Z,18.87
2019-01-17T16:22:39.081Z,18.82
2019-01-17T16:25:05.662Z,18.74
2019-01-17T16:27:31.957Z,18.65
2019-01-17T16:29:58.256Z,18.61
2019-01-17T16:32:24.556Z,18.56
2019-01-17T16:34:50.865Z,18.49
2019-01-17T16:37:17.183Z,18.39
2019-01-17T16:39:43.482Z,18.33
2019-01-17T16:42:09.797Z,18.29
2019-01-17T16:44:36.122Z,18.21
2019-01-17T16:47:03.215Z,18.15
2019-01-17T16:49:29.365Z,18.02
2019-01-17T16:51:55.688Z,17.93
2019-01-17T16:54:21.956Z,17.87
2019-01-17T16:56:48.291Z,17.85
2019-01-17T16:59:14.565Z,17.78
2019-01-17T17:01:40.866Z,17.76
2019-01-17T17:04:07.165Z,17.70
2019-01-17T17:06:33.460Z,17.63
2019-01-17T17:08:59.755Z,17.54
2019-01-17T17:11:26.096Z,17.51
2019-01-17T17:13:52.405Z,17.44
2019-01-17T17:16:18.718Z,17.45
2019-01-17T17:18:45.031Z,17.45
2019-01-17T17:21:11.334Z,17.37
2019-01-17T17:23:37.638Z,17.30
2019-01-17T17:26:03.990Z,17.20
2019-01-17T17:28:30.329Z,17.09
2019-01-17T17:30:56.627Z,17.09
2019-01-17T17:33:22.922Z,17.03
2019-01-17T17:35:51.525Z,16.97
2019-01-17T17:38:17.847Z,16.97
2019-01-17T17:40:44.158Z,17.01
2019-01-17T17:43:10.466Z,16.91
2019-01-17T17:45:36.782Z,16.87
2019-01-17T17:48:03.091Z,16.82
2019-01-17T17:50:29.392Z,16.74
2019-01-17T17:52:55.742Z,16.72
2019-01-17T17:55:22.046Z,16.70
2019-01-17T17:57:48.347Z,16.61
2019-01-17T18:00:14.653Z,16.51
2019-01-17T18:02:40.959Z,16.48
2019-01-17T18:05:07.258Z,16.46
2019-01-17T18:07:33.582Z,16.43
2019-01-17T18:10:01.272Z,16.41
2019-01-17T18:12:27.573Z,16.40
2019-01-17T18:14:53.871Z,16.36
2019-01-17T18:17:20.191Z,16.33
2019-01-17T18:19:46.504Z,16.29
2019-01-17T18:22:12.818Z,16.25
2019-01-17T18:24:39.131Z,16.16
2019-01-17T18:27:05.691Z,16.12
2019-01-17T18:29:31.986Z,16.17
2019-01-17T18:31:58.308Z,16.37
2019-01-17T18:34:24.610Z,16.33
2019-01-17T18:36:51.304Z,16.20
2019-01-17T18:39:17.619Z,16.09
2019-01-17T18:41:43.919Z,16.04
2019-01-17T18:44:12.483Z,16.04
2019-01-17T18:46:38.849Z,15.97
2019-01-17T18:49:05.190Z,15.85
2019-01-17T18:51:31.703Z,15.80
2019-01-17T18:53:57.939Z,15.74
2019-01-17T18:56:24.493Z,15.72
2019-01-17T18:58:51.161Z,15.69
2019-01-17T19:01:17.654Z,15.63
2019-01-17T19:03:43.966Z,15.58
2019-01-17T19:06:10.272Z,15.57
2019-01-17T19:08:36.571Z,15.53
2019-01-17T19:11:02.881Z,15.50
2019-01-17T19:13:29.198Z,15.47
2019-01-17T19:15:55.611Z,15.40
2019-01-17T19:18:21.923Z,15.29
2019-01-17T19:20:49.342Z,15.16
2019-01-17T19:23:14.534Z,15.11
2019-01-17T19:25:40.833Z,15.04
2019-01-17T19:28:07.135Z,15.02
2019-01-17T19:30:33.450Z,15.24
2019-01-17T19:32:59.748Z,15.31
2019-01-17T19:35:26.043Z,15.19
2019-01-17T19:37:52.343Z,15.08
2019-01-17T19:40:18.648Z,15.01
2019-01-17T19:42:45.006Z,14.91
2019-01-17T19:45:11.309Z,15.02
2019-01-17T19:47:37.607Z,14.90
2019-01-17T19:50:03.921Z,14.75
2019-01-17T19:52:30.247Z,14.62
2019-01-17T19:54:56.552Z,14.56
2019-01-17T19:57:22.852Z,14.48
2019-01-17T19:59:49.148Z,14.44
2019-01-17T20:02:15.703Z,14.36
2019-01-17T20:04:42.018Z,14.33
2019-01-17T20:07:08.334Z,14.28
2019-01-17T20:09:34.637Z,14.18
2019-01-17T20:12:00.980Z,14.13
2019-01-17T20:14:27.259Z,14.06
2019-01-17T20:16:53.555Z,14.00
2019-01-17T20:19:19.866Z,13.93
2019-01-17T20:21:46.338Z,13.92
2019-01-17T20:24:12.643Z,13.88
2019-01-17T20:26:38.940Z,13.81
2019-01-17T20:29:05.253Z,13.76
2019-01-17T20:31:32.649Z,13.72
2019-01-17T20:33:58.959Z,13.68
2019-01-17T20:36:25.289Z,13.64
2019-01-17T20:38:51.589Z,13.59
2019-01-17T20:41:20.359Z,13.51
2019-01-17T20:43:46.652Z,13.42
2019-01-17T20:46:12.967Z,13.41
2019-01-17T20:48:39.270Z,13.37
2019-01-17T20:51:05.576Z,13.35
2019-01-17T20:53:31.913Z,13.33
2019-01-17T20:55:58.214Z,13.29
2019-01-17T20:58:24.536Z,13.24
2019-01-17T21:00:51.398Z,13.23
2019-01-17T21:03:17.734Z,13.20
2019-01-17T21:05:46.262Z,13.14
2019-01-17T21:08:12.764Z,13.05
2019-01-17T21:10:39.088Z,13.04
2019-01-17T21:13:05.432Z,12.98
2019-01-17T21:15:31.755Z,12.93
2019-01-17T21:17:58.053Z,12.88
2019-01-17T21:20:26.605Z,12.85
2019-01-17T21:22:50.709Z,12.81
2019-01-17T21:25:16.980Z,12.78
2019-01-17T21:30:18.547Z,12.71
2019-01-17T21:32:44.903Z,12.64
2019-01-17T21:35:11.208Z,12.63
2019-01-17T21:37:37.521Z,12.60
2019-01-17T21:40:03.834Z,12.58
2019-01-17T21:42:30.173Z,12.52
2019-01-17T21:44:56.493Z,12.43
2019-01-17T21:47:22.797Z,12.41
2019-01-17T21:49:49.106Z,12.36
2019-01-17T21:52:15.439Z,12.32
2019-01-17T21:54:41.781Z,12.28
2019-01-17T21:57:08.074Z,12.23
2019-01-17T21:59:34.369Z,12.21
2019-01-17T22:02:00.686Z,12.16
2019-01-17T22:04:27.039Z,12.13
2019-01-17T22:06:53.331Z,12.06
2019-01-17T22:09:19.642Z,12.08
2019-01-17T22:11:45.951Z,12.05
2019-01-17T22:14:12.267Z,12.02
2019-01-17T22:16:38.582Z,11.99
2019-01-17T22:19:04.907Z,11.95
2019-01-17T22:21:31.212Z,11.92
2019-01-17T22:23:57.524Z,11.87
2019-01-17T22:26:23.833Z,11.84
2019-01-17T22:28:50.165Z,11.82
2019-01-17T22:31:16.479Z,12.02
2019-01-17T22:33:42.827Z,12.08
2019-01-17T22:36:09.104Z,12.10
2019-01-17T22:38:35.442Z,12.07
2019-01-17T22:41:01.752Z,12.14
2019-01-17T22:43:28.055Z,12.17
2019-01-17T22:45:54.366Z,12.15
2019-01-17T22:48:20.674Z,12.05
2019-01-17T22:50:46.987Z,11.96
2019-01-17T22:53:13.302Z,11.85
2019-01-17T22:55:39.603Z,11.82
2019-01-17T22:58:05.916Z,11.77
2019-01-17T23:00:32.228Z,11.70
2019-01-17T23:02:58.541Z,11.66
2019-01-17T23:05:24.846Z,11.59
2019-01-17T23:07:51.160Z,11.52
2019-01-17T23:10:17.469Z,11.52
2019-01-17T23:12:43.788Z,11.48
2019-01-17T23:15:10.100Z,11.41
2019-01-17T23:17:36.406Z,11.40
2019-01-17T23:20:02.706Z,11.35
2019-01-17T23:22:29.037Z,11.35
2019-01-17T23:24:55.331Z,11.32
2019-01-17T23:27:21.663Z,11.28
2019-01-17T23:29:48.102Z,11.26
2019-01-17T23:32:14.505Z,11.24
2019-01-17T23:34:40.871Z,11.20
2019-01-17T23:37:07.243Z,11.15
2019-01-17T23:39:33.519Z,10.99
2019-01-17T23:41:59.930Z,11.09
2019-01-17T23:44:26.252Z,11.05
2019-01-17T23:46:52.672Z,11.00
2019-01-17T23:49:18.936Z,10.97
2019-01-17T23:51:45.278Z,10.94
2019-01-17T23:54:11.602Z,10.92
2019-01-17T23:56:37.913Z,10.88
2019-01-17T23:59:04.224Z,10.84
